METAR Data
IDs: Format: Raw Decoded Include TAF

Data at: 1351 UTC 13 Dec 2019

KRZL 131335Z AUTO 19004KT 10SM OVC085 00/M02 A2999 RMK AO2